Time;durP1;ratioP1;P1;durP2;ratioP2;P2;SDS_P1;SDS_P2;PMS_P1;PMS_P2;Temp;Humidity;BMP_temperature;BMP_pressure;BME280_temperature;BME280_humidity;BME280_pressure;Samples;Min_cycle;Max_cycle;Signal;HPM_P1;HPM_P2
2021/01/16 00:00:39;;;;;;;44.50;25.63;;;4.40;99.90;;;;;;4983155;28;20180;-87
2021/01/16 00:03:09;;;;;;;51.67;26.60;;;4.30;99.90;;;;;;4983089;28;20580;-86
2021/01/16 00:05:36;;;;;;;49.87;27.43;;;4.30;99.90;;;;;;4998296;28;20223;-86
2021/01/16 00:08:10;;;;;;;43.07;26.70;;;4.30;99.90;;;;;;4998098;28;20208;-88
2021/01/16 00:10:46;;;;;;;51.63;28.73;;;4.30;99.90;;;;;;4998174;28;20642;-86
2021/01/16 00:13:17;;;;;;;49.03;27.40;;;4.30;99.90;;;;;;4998066;28;20203;-85
2021/01/16 00:15:43;;;;;;;47.87;25.63;;;4.30;99.90;;;;;;4998132;28;20172;-87
2021/01/16 00:18:11;;;;;;;48.27;26.80;;;4.30;99.90;;;;;;4998078;28;20177;-86
2021/01/16 00:20:40;;;;;;;45.90;26.00;;;4.30;99.90;;;;;;4998019;28;20322;-85
2021/01/16 00:23:06;;;;;;;43.57;25.60;;;4.30;99.90;;;;;;4997531;28;20267;-86
2021/01/16 00:25:33;;;;;;;41.80;24.90;;;4.30;99.90;;;;;;4997962;28;20259;-86
2021/01/16 00:27:59;;;;;;;42.40;25.37;;;4.40;99.90;;;;;;5015212;28;20246;-86
2021/01/16 00:30:28;;;;;;;45.23;25.07;;;4.40;99.90;;;;;;4997782;28;20185;-86
2021/01/16 00:32:54;;;;;;;43.57;25.33;;;4.50;99.90;;;;;;4996939;28;20192;-86
2021/01/16 00:35:21;;;;;;;46.50;26.83;;;4.40;99.90;;;;;;4998879;28;20181;-86
2021/01/16 00:37:51;;;;;;;44.80;25.10;;;4.40;99.90;;;;;;4997602;28;20196;-86
2021/01/16 00:40:20;;;;;;;40.60;25.50;;;4.30;99.90;;;;;;4990421;28;20207;-87
2021/01/16 00:42:48;;;;;;;49.97;26.47;;;4.30;99.90;;;;;;4997391;28;20169;-86
2021/01/16 00:45:14;;;;;;;46.07;25.57;;;4.40;99.90;;;;;;4997659;28;20637;-86
2021/01/16 00:47:41;;;;;;;46.83;25.50;;;4.50;99.90;;;;;;4997513;28;20266;-86
2021/01/16 00:50:09;;;;;;;40.93;24.90;;;4.60;99.90;;;;;;4997176;28;20187;-86
2021/01/16 00:52:36;;;;;;;45.40;24.87;;;4.60;99.90;;;;;;4998429;28;20181;-85
2021/01/16 00:55:02;;;;;;;42.57;24.90;;;4.60;99.90;;;;;;4997654;28;20172;-86
2021/01/16 00:57:28;;;;;;;42.90;23.10;;;4.50;99.90;;;;;;4997387;28;20206;-87
2021/01/16 00:59:55;;;;;;;42.17;24.60;;;4.50;99.90;;;;;;4997149;28;20184;-86
2021/01/16 01:02:21;;;;;;;46.00;24.50;;;4.50;99.90;;;;;;4980048;28;20264;-86
2021/01/16 01:04:47;;;;;;;46.87;25.17;;;4.40;99.90;;;;;;4961568;28;20177;-86
2021/01/16 01:07:13;;;;;;;42.63;23.53;;;4.50;99.90;;;;;;4994883;28;20209;-86
2021/01/16 01:09:40;;;;;;;40.50;24.30;;;4.50;99.90;;;;;;4976999;28;20305;-89
2021/01/16 01:12:07;;;;;;;37.80;23.30;;;4.50;99.90;;;;;;4997742;28;20172;-91
2021/01/16 01:14:35;;;;;;;39.53;22.43;;;4.40;99.90;;;;;;5015529;28;20230;-91
2021/01/16 01:17:01;;;;;;;40.93;22.10;;;4.30;99.90;;;;;;4998059;28;20177;-90
2021/01/16 01:19:27;;;;;;;37.20;23.43;;;4.30;99.90;;;;;;4997607;28;20172;-91
2021/01/16 01:21:55;;;;;;;40.60;24.53;;;4.20;99.90;;;;;;5001674;28;20173;-91
2021/01/16 01:24:20;;;;;;;41.20;24.07;;;4.10;99.90;;;;;;5006846;28;20263;-91
2021/01/16 01:26:46;;;;;;;38.97;25.27;;;4.10;99.90;;;;;;4997669;28;20243;-91
2021/01/16 01:29:12;;;;;;;43.03;24.70;;;4.10;99.90;;;;;;4997848;28;20185;-90
2021/01/16 01:31:38;;;;;;;41.87;24.90;;;4.20;99.90;;;;;;4988928;28;20189;-91
2021/01/16 01:34:04;;;;;;;41.33;24.30;;;4.30;99.90;;;;;;4978304;28;20174;-91
2021/01/16 01:36:30;;;;;;;38.83;23.60;;;4.30;99.90;;;;;;4977946;28;20177;-89
2021/01/16 01:38:59;;;;;;;42.27;24.00;;;4.30;99.90;;;;;;4978250;28;20596;-91
2021/01/16 01:41:25;;;;;;;39.83;24.03;;;4.30;99.90;;;;;;4992018;28;20208;-91
2021/01/16 01:43:50;;;;;;;45.83;24.60;;;4.40;99.90;;;;;;5013556;28;20179;-91
2021/01/16 01:46:16;;;;;;;41.47;24.33;;;4.40;99.90;;;;;;5017319;28;20239;-91
2021/01/16 01:48:45;;;;;;;40.53;24.17;;;4.40;99.90;;;;;;5017227;28;20209;-92
2021/01/16 01:51:22;;;;;;;;;;;;;;;;;;;;;
2021/01/16 01:53:54;;;;;;;41.87;23.63;;;4.20;99.90;;;;;;5014991;28;20152;-91
2021/01/16 01:56:20;;;;;;;37.43;23.10;;;4.20;99.90;;;;;;4997948;28;20169;-91
2021/01/16 01:58:48;;;;;;;36.20;23.03;;;4.20;99.90;;;;;;4997740;28;20176;-91
2021/01/16 02:01:17;;;;;;;40.03;23.93;;;4.20;99.90;;;;;;5008668;28;20177;-91
2021/01/16 02:03:45;;;;;;;38.77;23.73;;;4.40;99.90;;;;;;5000621;28;20173;-92
2021/01/16 02:06:10;;;;;;;43.03;22.73;;;4.50;99.90;;;;;;5009869;28;20182;-91
2021/01/16 02:08:36;;;;;;;37.67;23.63;;;4.50;99.90;;;;;;4982293;28;20630;-91
2021/01/16 02:11:06;;;;;;;42.43;24.20;;;4.50;99.90;;;;;;5002161;28;20175;-91
2021/01/16 02:13:35;;;;;;;42.70;24.70;;;4.50;99.90;;;;;;5001386;28;20169;-90
2021/01/16 02:16:09;;;;;;;43.87;24.67;;;4.50;99.90;;;;;;5000874;28;20180;-90
2021/01/16 02:18:43;;;;;;;38.93;23.13;;;4.50;99.90;;;;;;5019355;28;20214;-91
2021/01/16 02:21:16;;;;;;;34.70;22.60;;;4.50;99.90;;;;;;5003680;28;20161;-90
2021/01/16 02:24:09;;;;;;;38.33;23.13;;;4.40;99.90;;;;;;5023195;28;20161;-91
2021/01/16 02:26:57;;;;;;;38.30;23.13;;;4.50;99.90;;;;;;5005390;28;20173;-91
2021/01/16 02:29:24;;;;;;;38.03;23.20;;;4.40;99.90;;;;;;5005298;28;20173;-91
2021/01/16 02:32:01;;;;;;;38.97;22.50;;;4.30;99.90;;;;;;5022490;28;20176;-91
2021/01/16 02:34:37;;;;;;;39.73;23.30;;;4.30;99.90;;;;;;5004797;28;20636;-91
2021/01/16 02:37:08;;;;;;;41.47;24.00;;;4.40;99.90;;;;;;5005416;28;20604;-89
2021/01/16 02:40:06;;;;;;;38.37;23.30;;;4.40;99.90;;;;;;5004106;28;20165;-89
2021/01/16 02:42:54;;;;;;;43.03;22.40;;;4.30;99.90;;;;;;5005022;28;20180;-89
2021/01/16 02:45:36;;;;;;;40.73;23.53;;;4.40;99.90;;;;;;4990372;28;20180;-90
2021/01/16 02:48:24;;;;;;;37.40;22.40;;;4.40;99.90;;;;;;4984999;28;20319;-90
2021/01/16 02:50:54;;;;;;;35.23;22.20;;;4.30;99.90;;;;;;5002990;28;20169;-90
2021/01/16 02:53:24;;;;;;;39.30;23.53;;;4.30;99.90;;;;;;4992822;28;20166;-90
2021/01/16 02:55:53;;;;;;;37.50;23.27;;;4.30;99.90;;;;;;4986297;28;20158;-90
2021/01/16 02:58:19;;;;;;;38.87;24.03;;;4.30;99.90;;;;;;4986049;28;20178;-90
2021/01/16 03:00:46;;;;;;;38.80;24.10;;;4.10;99.90;;;;;;4984452;28;20188;-91
2021/01/16 03:03:12;;;;;;;36.50;22.40;;;4.00;99.90;;;;;;4987866;28;20178;-90
2021/01/16 03:05:38;;;;;;;36.03;22.23;;;4.10;99.90;;;;;;4969130;28;20197;-90
2021/01/16 03:08:04;;;;;;;40.77;23.70;;;4.10;99.90;;;;;;4974208;28;20219;-90
2021/01/16 03:10:32;;;;;;;35.63;22.93;;;4.10;99.90;;;;;;5003238;28;20169;-90
2021/01/16 03:12:58;;;;;;;39.53;22.50;;;4.20;99.90;;;;;;5003468;28;20169;-91
2021/01/16 03:15:24;;;;;;;36.97;22.50;;;4.20;99.90;;;;;;4987096;28;20177;-90
2021/01/16 03:17:55;;;;;;;40.23;23.20;;;4.10;99.90;;;;;;4988136;28;20187;-90
2021/01/16 03:20:29;;;;;;;38.30;23.87;;;4.10;99.90;;;;;;4987496;28;20176;-90
2021/01/16 03:22:57;;;;;;;37.60;23.23;;;4.20;99.90;;;;;;4978852;28;20267;-90
2021/01/16 03:25:25;;;;;;;36.27;23.60;;;4.20;99.90;;;;;;4985294;28;20252;-91
2021/01/16 03:27:54;;;;;;;38.80;23.10;;;4.20;99.90;;;;;;4981384;28;20201;-90
2021/01/16 03:30:21;;;;;;;38.10;23.90;;;4.20;99.90;;;;;;4983495;28;20223;-90
2021/01/16 03:32:48;;;;;;;35.70;22.77;;;4.10;99.90;;;;;;4972618;28;20177;-90
2021/01/16 03:35:17;;;;;;;36.07;22.87;;;4.00;99.90;;;;;;5002817;28;20188;-91
2021/01/16 03:37:46;;;;;;;38.73;23.23;;;4.00;99.90;;;;;;5003467;28;20173;-90
2021/01/16 03:40:14;;;;;;;39.03;22.63;;;4.10;99.90;;;;;;5002743;28;20168;-90
2021/01/16 03:42:43;;;;;;;40.37;23.57;;;4.10;99.90;;;;;;5002249;28;20251;-90
2021/01/16 03:45:11;;;;;;;42.77;23.93;;;4.20;99.90;;;;;;4992222;28;20236;-90
2021/01/16 03:47:37;;;;;;;37.37;23.73;;;4.30;99.90;;;;;;4981034;28;20209;-90
2021/01/16 03:50:05;;;;;;;46.80;23.50;;;4.30;99.90;;;;;;4979965;28;20247;-90
2021/01/16 03:52:33;;;;;;;36.77;21.50;;;4.20;99.90;;;;;;4983617;28;20173;-90
2021/01/16 03:54:59;;;;;;;35.03;22.03;;;4.20;99.90;;;;;;4999350;28;20168;-90
2021/01/16 03:57:25;;;;;;;39.60;22.37;;;4.20;99.90;;;;;;4999214;28;20180;-89
2021/01/16 03:59:51;;;;;;;36.10;22.23;;;4.20;99.90;;;;;;4999520;28;20598;-90
2021/01/16 04:02:18;;;;;;;31.83;21.57;;;4.20;99.90;;;;;;4984949;28;20547;-90
2021/01/16 04:04:44;;;;;;;34.37;22.37;;;4.20;99.90;;;;;;5012426;28;20177;-90
2021/01/16 04:07:13;;;;;;;33.27;21.70;;;4.20;99.90;;;;;;5002851;28;20280;-90
2021/01/16 04:09:43;;;;;;;32.03;21.67;;;4.20;99.90;;;;;;5000696;28;20181;-90
2021/01/16 04:12:11;;;;;;;35.10;23.00;;;4.30;99.90;;;;;;5007588;28;20233;-93
2021/01/16 04:14:37;;;;;;;38.87;23.13;;;4.30;99.90;;;;;;5002995;28;20180;-92
2021/01/16 04:17:11;;;;;;;36.40;23.10;;;4.40;99.90;;;;;;5002500;28;20207;-91
2021/01/16 04:19:41;;;;;;;42.17;24.93;;;4.50;99.90;;;;;;5019805;28;20153;-91
2021/01/16 04:22:07;;;;;;;40.63;23.73;;;4.50;99.90;;;;;;5018942;28;20165;-90
2021/01/16 04:24:33;;;;;;;36.73;22.50;;;4.40;99.90;;;;;;4990316;28;20192;-91
2021/01/16 04:26:58;;;;;;;44.17;24.50;;;4.40;99.90;;;;;;5001010;28;20208;-91
2021/01/16 04:29:27;;;;;;;38.57;24.03;;;4.30;99.90;;;;;;5029791;28;20169;-92
2021/01/16 04:31:52;;;;;;;34.67;22.10;;;4.30;99.90;;;;;;5017999;28;20177;-91
2021/01/16 04:34:18;;;;;;;33.20;22.47;;;4.30;99.90;;;;;;4993323;28;20178;-90
2021/01/16 04:36:44;;;;;;;37.63;23.23;;;4.20;99.90;;;;;;4980656;28;20182;-90
2021/01/16 04:39:15;;;;;;;39.13;24.00;;;4.30;99.90;;;;;;4996707;28;20180;-91
2021/01/16 04:41:45;;;;;;;39.77;23.73;;;4.30;99.90;;;;;;4999530;28;20629;-91
2021/01/16 04:44:12;;;;;;;40.50;23.33;;;4.30;99.90;;;;;;4998008;28;20176;-91
2021/01/16 04:46:39;;;;;;;43.10;23.37;;;4.30;99.90;;;;;;4998272;28;20169;-91
2021/01/16 04:49:06;;;;;;;41.10;23.50;;;4.30;99.90;;;;;;4998700;28;20319;-91
2021/01/16 04:51:47;;;;;;;36.37;22.83;;;4.20;99.90;;;;;;4998625;28;20303;-91
2021/01/16 04:54:18;;;;;;;43.43;23.43;;;4.20;99.90;;;;;;4983001;28;20252;-90
2021/01/16 04:56:47;;;;;;;36.03;22.60;;;4.20;99.90;;;;;;4978885;28;20170;-91
2021/01/16 04:59:16;;;;;;;37.83;23.10;;;4.20;99.90;;;;;;4963233;28;20240;-91
2021/01/16 05:01:45;;;;;;;35.17;22.40;;;4.30;99.90;;;;;;4995816;28;20182;-90
2021/01/16 05:04:13;;;;;;;38.07;24.10;;;4.30;99.90;;;;;;4993655;28;20176;-90
2021/01/16 05:06:40;;;;;;;38.60;23.47;;;4.30;99.90;;;;;;4997702;28;20223;-91
2021/01/16 05:09:08;;;;;;;39.50;23.07;;;4.40;99.90;;;;;;4998081;28;20188;-90
2021/01/16 05:11:45;;;;;;;36.53;22.67;;;4.30;99.90;;;;;;4998009;28;20168;-91
2021/01/16 05:14:16;;;;;;;34.23;21.60;;;4.30;99.90;;;;;;4997869;28;20192;-90
2021/01/16 05:16:54;;;;;;;40.83;24.33;;;4.20;99.90;;;;;;5007191;28;20197;-91
2021/01/16 05:19:22;;;;;;;44.97;24.17;;;4.20;99.90;;;;;;5000919;28;20168;-90
2021/01/16 05:21:48;;;;;;;36.17;22.57;;;4.20;99.90;;;;;;4978318;28;20169;-91
2021/01/16 05:24:15;;;;;;;40.03;21.33;;;4.20;99.90;;;;;;4997639;28;20172;-92
2021/01/16 05:27:07;;;;;;;35.87;22.77;;;4.20;99.90;;;;;;4997191;28;20220;-92
2021/01/16 05:29:35;;;;;;;34.10;21.90;;;4.20;99.90;;;;;;4997546;28;20165;-91
2021/01/16 05:32:04;;;;;;;37.00;23.20;;;4.20;99.90;;;;;;4997449;28;20173;-90
2021/01/16 05:34:31;;;;;;;36.93;22.10;;;4.20;99.90;;;;;;4997865;28;20259;-91
2021/01/16 05:36:58;;;;;;;35.70;22.27;;;4.30;99.90;;;;;;4997144;28;20172;-91
2021/01/16 05:39:27;;;;;;;34.43;21.87;;;4.30;99.90;;;;;;4997370;28;20176;-91
2021/01/16 05:41:57;;;;;;;37.93;22.07;;;4.30;99.90;;;;;;4997549;28;20184;-91
2021/01/16 05:44:25;;;;;;;38.93;22.73;;;4.30;99.90;;;;;;4997352;28;20168;-90
2021/01/16 05:46:52;;;;;;;34.03;21.93;;;4.30;99.90;;;;;;4997216;28;20168;-92
2021/01/16 05:49:21;;;;;;;37.73;21.50;;;4.30;99.90;;;;;;4997401;28;20191;-91
2021/01/16 05:51:48;;;;;;;41.00;22.67;;;4.40;99.90;;;;;;4997371;28;20260;-91
2021/01/16 05:54:15;;;;;;;38.13;24.03;;;4.30;99.90;;;;;;4997477;28;20172;-89
2021/01/16 05:56:42;;;;;;;37.63;22.07;;;4.30;99.90;;;;;;5000593;28;20176;-90
2021/01/16 05:59:14;;;;;;;34.07;21.63;;;4.40;99.90;;;;;;5018737;28;20168;-90
2021/01/16 06:01:44;;;;;;;38.17;23.00;;;4.30;99.90;;;;;;4995187;28;20166;-90
2021/01/16 06:04:18;;;;;;;38.00;21.87;;;4.30;99.90;;;;;;4999179;28;20170;-91
2021/01/16 06:06:44;;;;;;;39.43;23.50;;;4.30;99.90;;;;;;4998779;28;20184;-90
2021/01/16 06:09:18;;;;;;;34.40;22.63;;;4.30;99.90;;;;;;4965674;28;20273;-90
2021/01/16 06:11:46;;;;;;;38.23;21.57;;;4.20;99.90;;;;;;4981764;28;20652;-90
2021/01/16 06:14:12;;;;;;;36.30;22.90;;;4.10;99.90;;;;;;4981604;28;20169;-91
2021/01/16 06:16:55;;;;;;;36.77;22.70;;;4.10;99.90;;;;;;4981498;28;20177;-91
2021/01/16 06:19:25;;;;;;;40.47;23.43;;;4.10;99.90;;;;;;4972243;28;20642;-91
2021/01/16 06:21:52;;;;;;;38.13;22.83;;;4.10;99.90;;;;;;4977803;28;20186;-91
2021/01/16 06:24:20;;;;;;;43.43;22.77;;;4.10;99.90;;;;;;4961463;28;20196;-91
2021/01/16 06:26:55;;;;;;;38.27;21.80;;;4.10;99.90;;;;;;4977227;28;20713;-91
2021/01/16 06:29:38;;;;;;;44.70;22.17;;;4.00;99.90;;;;;;4963731;28;20181;-91
2021/01/16 06:32:05;;;;;;;48.43;24.47;;;3.90;99.90;;;;;;4985464;28;20268;-91
2021/01/16 06:34:36;;;;;;;41.37;23.03;;;3.90;99.90;;;;;;4996834;28;20209;-90
2021/01/16 06:37:08;;;;;;;46.90;24.83;;;3.90;99.90;;;;;;4996655;28;20666;-90
2021/01/16 06:39:40;;;;;;;45.53;22.73;;;3.70;99.90;;;;;;5013660;28;20189;-91
2021/01/16 06:42:09;;;;;;;45.97;23.83;;;3.60;99.90;;;;;;5008070;28;20234;-92
2021/01/16 06:44:35;;;;;;;37.37;23.47;;;3.70;99.90;;;;;;4977060;28;20179;-90
2021/01/16 06:47:01;;;;;;;38.33;21.37;;;3.60;99.90;;;;;;4960750;28;20174;-89
2021/01/16 06:49:28;;;;;;;36.07;22.07;;;3.60;99.90;;;;;;4975403;28;20646;-91
2021/01/16 06:51:59;;;;;;;38.33;22.03;;;3.50;99.90;;;;;;4993895;28;20165;-90
2021/01/16 06:54:26;;;;;;;37.70;21.27;;;3.40;99.90;;;;;;4981084;28;20169;-89
2021/01/16 06:57:18;;;;;;;38.67;21.37;;;3.40;99.90;;;;;;4993796;28;20173;-91
2021/01/16 06:59:44;;;;;;;32.70;19.17;;;3.50;99.90;;;;;;4996690;28;20204;-90
2021/01/16 07:02:29;;;;;;;32.00;17.73;;;3.50;99.90;;;;;;4999540;28;20189;-90
2021/01/16 07:04:56;;;;;;;34.20;18.43;;;3.40;99.90;;;;;;5019130;28;20169;-90
2021/01/16 07:07:35;;;;;;;32.23;17.70;;;3.30;99.90;;;;;;5002978;28;20245;-90
2021/01/16 07:10:12;;;;;;;30.57;17.00;;;3.30;99.90;;;;;;5006669;28;20185;-90
2021/01/16 07:12:42;;;;;;;30.40;16.33;;;3.30;99.90;;;;;;5002049;28;20168;-91
2021/01/16 07:15:09;;;;;;;24.13;15.87;;;3.30;99.90;;;;;;5002451;28;20221;-91
2021/01/16 07:17:36;;;;;;;27.20;15.83;;;3.20;99.90;;;;;;5019368;28;20177;-91
2021/01/16 07:20:06;;;;;;;28.20;15.37;;;3.20;99.90;;;;;;5001132;28;20544;-91
2021/01/16 07:22:38;;;;;;;30.23;15.13;;;3.20;99.90;;;;;;5001292;28;20176;-90
2021/01/16 07:25:06;;;;;;;23.30;15.23;;;3.20;99.90;;;;;;5011688;28;20180;-91
2021/01/16 07:27:33;;;;;;;24.13;14.03;;;3.30;99.90;;;;;;5035157;28;20204;-91
2021/01/16 07:30:07;;;;;;;21.93;14.13;;;3.40;99.90;;;;;;5036695;28;20149;-90
2021/01/16 07:32:50;;;;;;;20.57;13.33;;;3.40;99.90;;;;;;5016580;28;20292;-91
2021/01/16 07:35:24;;;;;;;22.27;13.87;;;3.50;99.90;;;;;;5026562;28;20188;-91
2021/01/16 07:37:51;;;;;;;18.87;13.07;;;3.50;99.90;;;;;;5008926;28;20179;-92
2021/01/16 07:40:21;;;;;;;22.37;13.53;;;3.50;99.90;;;;;;5003749;28;20169;-93
2021/01/16 07:42:58;;;;;;;24.43;13.00;;;3.60;99.90;;;;;;4986349;28;20187;-90
2021/01/16 07:45:32;;;;;;;22.67;11.97;;;3.60;99.90;;;;;;5000859;28;20172;-90
2021/01/16 07:48:03;;;;;;;17.10;12.40;;;3.70;99.90;;;;;;4998988;28;20669;-91
2021/01/16 07:50:30;;;;;;;16.33;11.70;;;3.70;99.90;;;;;;5000017;28;20169;-90
2021/01/16 07:52:59;;;;;;;18.47;11.80;;;3.70;99.90;;;;;;4999633;28;20543;-91
2021/01/16 07:55:34;;;;;;;18.77;11.23;;;3.70;99.90;;;;;;5003180;28;20184;-91
2021/01/16 07:58:06;;;;;;;19.43;12.30;;;3.60;99.90;;;;;;5000849;28;20279;-90
2021/01/16 08:00:36;;;;;;;19.90;11.73;;;3.70;99.90;;;;;;5000777;28;20173;-91
2021/01/16 08:03:12;;;;;;;19.70;12.90;;;3.70;99.90;;;;;;5000905;28;20193;-90
2021/01/16 08:06:21;;;;;;;15.20;11.57;;;3.70;99.90;;;;;;5000558;28;20184;-91
2021/01/16 08:08:55;;;;;;;14.63;11.07;;;3.70;99.90;;;;;;4980156;28;20224;-90
2021/01/16 08:11:28;;;;;;;15.77;11.57;;;3.60;99.90;;;;;;5017858;28;20190;-90
2021/01/16 08:13:59;;;;;;;17.60;11.07;;;3.60;99.90;;;;;;5001110;28;20161;-90
2021/01/16 08:16:26;;;;;;;17.20;11.07;;;3.60;99.90;;;;;;5001909;28;20276;-91
2021/01/16 08:19:03;;;;;;;18.63;11.23;;;3.60;99.90;;;;;;4980619;28;20248;-91
2021/01/16 08:21:30;;;;;;;16.87;12.13;;;3.60;99.90;;;;;;4997351;28;20168;-90
2021/01/16 08:24:03;;;;;;;22.50;12.80;;;3.60;99.90;;;;;;4997865;28;20178;-90
2021/01/16 08:26:28;;;;;;;16.93;12.07;;;3.70;99.90;;;;;;4980518;28;20165;-90
2021/01/16 08:28:57;;;;;;;16.77;11.20;;;3.80;99.90;;;;;;4997999;28;20237;-90
2021/01/16 08:31:28;;;;;;;17.30;11.30;;;3.90;99.90;;;;;;4997343;28;20605;-90
2021/01/16 08:33:54;;;;;;;19.20;12.17;;;3.80;99.90;;;;;;4997177;28;20264;-90
2021/01/16 08:36:23;;;;;;;19.30;12.03;;;3.90;99.90;;;;;;4995892;28;20196;-90
2021/01/16 08:38:50;;;;;;;16.73;12.10;;;3.90;99.90;;;;;;4997822;28;20173;-90
2021/01/16 08:41:28;;;;;;;19.13;10.53;;;4.00;99.90;;;;;;4996418;28;20256;-90
2021/01/16 08:43:58;;;;;;;13.50;11.53;;;4.00;99.90;;;;;;4996627;28;20161;-90
2021/01/16 08:46:34;;;;;;;16.27;11.33;;;4.00;99.90;;;;;;4996836;28;20548;-90
2021/01/16 08:49:09;;;;;;;17.17;10.73;;;4.00;99.90;;;;;;4996438;28;20203;-90
2021/01/16 08:51:39;;;;;;;14.10;10.73;;;3.90;99.90;;;;;;4996392;28;20256;-89
2021/01/16 08:54:17;;;;;;;14.87;10.67;;;3.90;99.90;;;;;;4997738;28;20187;-90
2021/01/16 08:56:48;;;;;;;17.10;11.43;;;3.80;99.90;;;;;;4996236;28;20200;-91
2021/01/16 08:59:33;;;;;;;16.83;11.67;;;3.70;99.90;;;;;;4994137;28;20692;-90
2021/01/16 09:02:09;;;;;;;15.90;11.43;;;3.60;99.90;;;;;;4996285;28;20173;-90
2021/01/16 09:04:40;;;;;;;15.50;11.77;;;3.40;99.90;;;;;;4999529;28;20638;-87
2021/01/16 09:07:22;;;;;;;15.97;12.00;;;3.30;99.90;;;;;;5018388;28;20268;-88
2021/01/16 09:10:04;;;;;;;18.50;11.23;;;3.20;99.90;;;;;;5002063;28;20193;-94
2021/01/16 09:12:32;;;;;;;17.93;11.80;;;3.10;99.90;;;;;;5005647;28;20184;-88
2021/01/16 09:15:20;;;;;;;16.23;11.57;;;3.00;99.90;;;;;;4982916;28;20165;-88
2021/01/16 09:18:12;;;;;;;15.20;10.80;;;3.00;99.90;;;;;;4998227;28;20216;-89
2021/01/16 09:20:53;;;;;;;14.57;10.27;;;3.10;99.90;;;;;;4979797;28;20177;-88
2021/01/16 09:23:19;;;;;;;18.37;11.40;;;3.10;99.90;;;;;;5002619;28;20180;-88
2021/01/16 09:25:55;;;;;;;20.57;11.23;;;3.20;99.90;;;;;;5033877;28;20184;-89
2021/01/16 09:28:48;;;;;;;16.17;11.03;;;3.20;99.90;;;;;;5011642;28;20203;-88
2021/01/16 09:31:23;;;;;;;14.57;10.73;;;3.20;99.90;;;;;;4996232;28;20199;-87
2021/01/16 09:33:56;;;;;;;16.27;11.20;;;3.20;99.90;;;;;;5001547;28;20188;-89
2021/01/16 09:36:38;;;;;;;17.50;10.70;;;3.20;99.90;;;;;;4998494;28;20227;-90
2021/01/16 09:39:06;;;;;;;22.03;11.90;;;3.20;99.90;;;;;;4999815;28;20180;-89
2021/01/16 09:41:33;;;;;;;15.77;11.57;;;3.30;99.90;;;;;;4999474;28;20176;-89
2021/01/16 09:43:59;;;;;;;15.53;11.53;;;3.40;99.90;;;;;;4998106;28;20173;-87
2021/01/16 09:46:44;;;;;;;14.47;11.47;;;3.40;99.90;;;;;;4993895;28;20169;-90
2021/01/16 09:49:14;;;;;;;16.63;11.97;;;3.40;99.90;;;;;;4974491;28;20209;-90
2021/01/16 09:51:42;;;;;;;24.10;13.77;;;3.30;99.90;;;;;;4998421;28;20602;-89
2021/01/16 09:54:16;;;;;;;22.80;13.67;;;3.20;99.90;;;;;;4981981;28;20172;-89
2021/01/16 09:56:51;;;;;;;20.23;13.07;;;3.20;99.90;;;;;;4998834;28;20212;-89
2021/01/16 09:59:24;;;;;;;24.20;14.13;;;3.20;99.90;;;;;;4997847;28;20172;-90
2021/01/16 10:02:13;;;;;;;25.30;13.27;;;3.20;99.90;;;;;;4996967;28;20264;-89
2021/01/16 10:04:41;;;;;;;23.33;14.77;;;3.20;99.90;;;;;;4999631;28;20196;-90
2021/01/16 10:07:15;;;;;;;21.13;13.17;;;3.30;99.90;;;;;;4997656;28;20188;-90
2021/01/16 10:09:49;;;;;;;25.40;14.83;;;3.20;99.90;;;;;;5016375;28;20163;-89
2021/01/16 10:12:33;;;;;;;25.87;15.27;;;3.20;99.90;;;;;;4998889;28;20211;-89
2021/01/16 10:15:03;;;;;;;23.30;15.17;;;3.10;99.90;;;;;;4998008;28;20173;-88
2021/01/16 10:17:32;;;;;;;26.13;15.97;;;3.00;99.90;;;;;;4998459;28;20177;-89
2021/01/16 10:20:10;;;;;;;22.97;14.60;;;2.90;99.90;;;;;;4997635;28;20181;-89
2021/01/16 10:22:36;;;;;;;24.47;14.83;;;2.90;99.90;;;;;;4995275;28;20176;-89
2021/01/16 10:25:09;;;;;;;26.80;15.83;;;2.90;99.90;;;;;;4997898;28;20178;-90
2021/01/16 10:27:46;;;;;;;22.70;15.37;;;2.80;99.90;;;;;;4998818;28;20597;-89
2021/01/16 10:30:18;;;;;;;22.93;14.63;;;2.90;99.90;;;;;;4997750;28;20169;-89
2021/01/16 10:32:45;;;;;;;26.47;15.40;;;2.90;99.90;;;;;;4998099;28;20176;-89
2021/01/16 10:35:37;;;;;;;24.77;14.67;;;2.90;99.90;;;;;;4979745;28;20244;-89
2021/01/16 10:38:02;;;;;;;21.37;13.57;;;2.90;99.90;;;;;;5014097;28;20257;-91
2021/01/16 10:40:31;;;;;;;21.63;14.77;;;2.90;99.90;;;;;;5002459;28;20208;-89
2021/01/16 10:42:58;;;;;;;20.20;12.93;;;2.80;99.90;;;;;;5005261;28;20205;-89
2021/01/16 10:45:32;;;;;;;19.03;14.00;;;2.80;99.90;;;;;;5003639;28;20275;-90
2021/01/16 10:48:20;;;;;;;21.57;13.20;;;2.90;99.90;;;;;;5018446;28;20227;-89
2021/01/16 10:50:47;;;;;;;21.53;13.37;;;2.90;99.90;;;;;;4999058;28;20212;-92
2021/01/16 10:53:13;;;;;;;23.93;13.63;;;3.00;99.90;;;;;;5001177;28;20176;-89
2021/01/16 10:55:54;;;;;;;19.20;12.87;;;2.90;99.90;;;;;;5000469;28;20181;-89
2021/01/16 10:58:27;;;;;;;19.00;12.40;;;3.00;99.90;;;;;;5001075;28;20173;-89
2021/01/16 11:00:59;;;;;;;19.97;13.07;;;3.00;99.90;;;;;;4984930;28;20644;-92
2021/01/16 11:03:30;;;;;;;21.00;12.50;;;3.10;99.90;;;;;;4981895;28;20177;-88
2021/01/16 11:06:02;;;;;;;18.73;13.00;;;3.20;99.90;;;;;;4998591;28;20184;-89
2021/01/16 11:08:30;;;;;;;22.83;13.30;;;3.20;99.90;;;;;;5002233;28;20741;-88
2021/01/16 11:10:59;;;;;;;18.13;12.47;;;3.10;99.90;;;;;;5018419;28;20192;-88
2021/01/16 11:13:28;;;;;;;20.10;13.37;;;3.10;99.90;;;;;;5002724;28;20183;-87
2021/01/16 11:16:17;;;;;;;23.33;13.53;;;3.30;99.90;;;;;;5002200;28;20165;-87
2021/01/16 11:22:15;;;;;;;21.93;13.40;;;3.10;99.90;;;;;;5018592;28;20211;-88
2021/01/16 11:28:08;;;;;;;26.40;14.63;;;3.10;99.90;;;;;;5019162;28;20223;-88
2021/01/16 11:30:46;;;;;;;27.73;15.87;;;3.10;99.90;;;;;;5002749;28;20188;-88
2021/01/16 11:33:26;;;;;;;22.90;14.87;;;3.10;99.90;;;;;;5004210;28;20316;-88
2021/01/16 11:36:09;;;;;;;23.60;15.90;;;3.20;99.90;;;;;;5009795;28;20175;-88
2021/01/16 11:38:38;;;;;;;24.80;15.80;;;3.10;99.90;;;;;;5024185;28;20189;-88
2021/01/16 11:41:04;;;;;;;28.77;16.40;;;3.10;99.90;;;;;;5022999;28;20260;-86
2021/01/16 11:43:31;;;;;;;31.60;16.33;;;3.10;99.90;;;;;;5023450;28;20180;-87
2021/01/16 11:46:06;;;;;;;28.67;17.27;;;3.00;99.90;;;;;;5004121;28;20185;-85
2021/01/16 11:48:33;;;;;;;31.43;18.27;;;3.00;99.90;;;;;;5020690;28;20228;-87
2021/01/16 11:51:17;;;;;;;34.73;17.70;;;3.00;99.90;;;;;;5019977;28;20166;-89
2021/01/16 11:53:50;;;;;;;28.23;17.37;;;3.00;99.90;;;;;;5019655;28;20176;-88
2021/01/16 11:56:20;;;;;;;32.43;16.93;;;2.90;99.90;;;;;;5035209;28;20211;-88
2021/01/16 11:58:48;;;;;;;31.17;17.93;;;2.80;99.90;;;;;;5036727;28;20172;-90
2021/01/16 12:01:17;;;;;;;35.70;18.97;;;2.80;99.90;;;;;;5020025;28;20228;-91
2021/01/16 12:03:54;;;;;;;39.43;20.47;;;2.90;99.90;;;;;;5009658;28;20183;-91
2021/01/16 12:06:20;;;;;;;32.23;18.97;;;2.90;99.90;;;;;;4986285;28;20189;-91
2021/01/16 12:08:48;;;;;;;31.43;19.10;;;2.90;99.90;;;;;;4981306;28;20215;-91
2021/01/16 12:11:15;;;;;;;34.13;19.20;;;2.80;99.90;;;;;;5007712;28;20227;-90
2021/01/16 12:13:50;;;;;;;34.50;20.27;;;2.80;99.90;;;;;;5002147;28;20689;-87
2021/01/16 12:16:16;;;;;;;37.90;19.13;;;2.80;99.90;;;;;;4999133;28;20208;-88
2021/01/16 12:18:42;;;;;;;37.03;20.17;;;2.90;99.90;;;;;;4998961;28;20176;-88
2021/01/16 12:21:12;;;;;;;35.17;19.97;;;2.80;99.90;;;;;;5016319;28;20176;-89
2021/01/16 12:23:46;;;;;;;30.63;18.53;;;2.80;99.90;;;;;;5016681;28;20172;-88
2021/01/16 12:26:18;;;;;;;41.80;21.50;;;2.70;99.90;;;;;;4990437;28;20181;-88
2021/01/16 12:28:48;;;;;;;34.07;18.73;;;2.90;99.90;;;;;;4998652;28;20201;-88
2021/01/16 12:31:22;;;;;;;35.30;20.47;;;2.80;99.90;;;;;;5000054;28;20204;-88
2021/01/16 12:33:48;;;;;;;36.37;21.73;;;2.80;99.90;;;;;;5025244;28;20173;-88
2021/01/16 12:36:15;;;;;;;35.07;20.07;;;2.80;99.90;;;;;;5009409;28;20169;-88
2021/01/16 12:38:40;;;;;;;39.17;20.93;;;2.90;99.90;;;;;;5008334;28;20626;-88
2021/01/16 12:41:06;;;;;;;39.57;20.60;;;3.00;99.90;;;;;;5003253;28;20250;-89
2021/01/16 12:43:33;;;;;;;36.33;21.33;;;3.00;99.90;;;;;;5004706;28;20201;-89
2021/01/16 12:46:08;;;;;;;41.30;22.30;;;2.80;99.90;;;;;;5006421;28;20175;-89
2021/01/16 12:48:35;;;;;;;42.10;23.70;;;2.70;99.90;;;;;;5001290;28;20216;-90
2021/01/16 12:51:04;;;;;;;42.53;24.30;;;2.70;99.90;;;;;;5000452;28;20247;-89
2021/01/16 12:53:36;;;;;;;49.60;24.63;;;2.50;99.90;;;;;;5000018;28;20624;-88
2021/01/16 12:56:15;;;;;;;43.67;24.73;;;2.40;99.90;;;;;;5000976;28;20179;-88
2021/01/16 12:58:50;;;;;;;44.03;24.03;;;2.40;99.90;;;;;;5001729;28;20328;-88
2021/01/16 13:01:28;;;;;;;43.60;24.63;;;2.40;99.90;;;;;;4999794;28;20196;-87
2021/01/16 13:03:54;;;;;;;42.60;22.97;;;2.40;99.90;;;;;;4998755;28;20607;-86